Time;durP1;ratioP1;P1;durP2;ratioP2;P2;SDS_P1;SDS_P2;PMS_P1;PMS_P2;Temp;Humidity;BMP_temperature;BMP_pressure;BME280_temperature;BME280_humidity;BME280_pressure;Samples;Min_cycle;Max_cycle;Signal;HPM_P1;HPM_P2
2023/09/07 00:00:36;;;;;;;3.55;2.83;;;19.00;99.90;;;;;;5139287;27;20049;-75
2023/09/07 00:03:02;;;;;;;4.22;2.70;;;18.90;99.90;;;;;;5154820;27;20095;-75
2023/09/07 00:05:27;;;;;;;4.53;2.85;;;18.90;99.90;;;;;;5139089;27;20035;-74
2023/09/07 00:07:53;;;;;;;3.58;2.47;;;18.90;99.90;;;;;;5156996;27;20031;-75
2023/09/07 00:10:19;;;;;;;4.25;2.40;;;18.90;99.90;;;;;;5138649;27;20074;-75
2023/09/07 00:12:45;;;;;;;3.22;2.58;;;18.80;99.90;;;;;;5138990;27;20070;-75
2023/09/07 00:15:11;;;;;;;5.05;2.97;;;18.80;99.90;;;;;;5157377;27;20043;-75
2023/09/07 00:17:37;;;;;;;4.68;2.88;;;18.70;99.90;;;;;;5156533;27;20078;-75
2023/09/07 00:20:10;;;;;;;3.40;2.65;;;18.70;99.90;;;;;;5157306;27;20050;-75
2023/09/07 00:22:37;;;;;;;3.20;2.40;;;18.80;99.90;;;;;;5157040;27;20034;-74
2023/09/07 00:25:03;;;;;;;4.18;2.88;;;18.70;99.90;;;;;;5157060;27;20424;-75
2023/09/07 00:27:30;;;;;;;3.47;2.60;;;18.60;99.90;;;;;;5157034;27;20042;-75
2023/09/07 00:29:55;;;;;;;3.47;2.67;;;18.60;99.90;;;;;;5138926;27;20077;-75
2023/09/07 00:32:21;;;;;;;3.72;2.30;;;18.50;99.90;;;;;;5156737;27;20482;-75
2023/09/07 00:34:47;;;;;;;5.30;2.45;;;18.30;99.90;;;;;;5156697;27;20159;-75
2023/09/07 00:37:12;;;;;;;2.80;2.30;;;18.30;99.90;;;;;;5156744;27;20075;-75
2023/09/07 00:39:38;;;;;;;4.00;2.60;;;18.30;99.90;;;;;;5157159;27;20043;-76
2023/09/07 00:42:04;;;;;;;2.97;2.40;;;18.20;99.90;;;;;;5157151;27;20459;-75
2023/09/07 00:44:30;;;;;;;3.22;2.08;;;18.30;99.90;;;;;;5156963;27;20126;-75
2023/09/07 00:46:56;;;;;;;3.05;2.22;;;18.20;99.90;;;;;;5156617;27;20038;-75
2023/09/07 00:49:23;;;;;;;3.78;2.63;;;18.20;99.90;;;;;;5156453;27;20041;-75
2023/09/07 00:51:48;;;;;;;3.25;2.58;;;18.20;99.90;;;;;;5156712;27;20378;-75
2023/09/07 00:54:14;;;;;;;4.57;2.60;;;18.20;99.90;;;;;;5138474;27;20031;-75
2023/09/07 00:56:41;;;;;;;3.70;2.42;;;18.10;99.90;;;;;;5156159;27;20467;-75
2023/09/07 00:59:07;;;;;;;3.13;2.50;;;18.20;99.90;;;;;;5156079;27;20471;-75
2023/09/07 01:01:34;;;;;;;4.00;2.50;;;18.20;99.90;;;;;;5137831;27;20117;-75
2023/09/07 01:04:01;;;;;;;3.20;2.28;;;18.20;99.90;;;;;;5156627;27;20038;-75
2023/09/07 01:06:32;;;;;;;3.67;2.40;;;18.00;99.90;;;;;;5156553;27;20050;-75
2023/09/07 01:09:04;;;;;;;3.53;2.50;;;17.90;99.90;;;;;;5156371;27;20043;-75
2023/09/07 01:11:37;;;;;;;3.75;2.58;;;17.80;99.90;;;;;;5155996;27;20470;-75
2023/09/07 01:14:04;;;;;;;4.75;2.80;;;17.70;99.90;;;;;;5156433;27;20109;-75
2023/09/07 01:16:30;;;;;;;3.67;2.55;;;17.70;99.90;;;;;;5156031;27;20047;-75
2023/09/07 01:18:57;;;;;;;4.38;2.90;;;17.70;99.90;;;;;;5156240;27;20131;-75
2023/09/07 01:21:23;;;;;;;3.75;2.70;;;17.70;99.90;;;;;;5156333;27;20093;-75
2023/09/07 01:23:49;;;;;;;4.47;2.95;;;17.80;99.90;;;;;;5155595;27;20034;-75
2023/09/07 01:26:15;;;;;;;4.25;3.08;;;17.80;99.90;;;;;;5137469;27;20370;-75
2023/09/07 01:28:41;;;;;;;5.75;3.55;;;17.80;99.90;;;;;;5149926;27;20034;-75
2023/09/07 01:31:07;;;;;;;3.55;2.60;;;17.80;99.90;;;;;;5151989;27;20117;-74
2023/09/07 01:33:33;;;;;;;4.55;2.80;;;17.80;99.90;;;;;;5136934;27;20070;-75
2023/09/07 01:35:59;;;;;;;3.20;2.40;;;17.70;99.90;;;;;;5155508;27;20046;-74
2023/09/07 01:38:25;;;;;;;3.60;2.90;;;17.70;99.90;;;;;;5155481;27;20046;-74
2023/09/07 01:40:50;;;;;;;6.45;3.35;;;17.60;99.90;;;;;;5155776;27;20043;-75
2023/09/07 01:43:16;;;;;;;4.90;2.85;;;17.60;99.90;;;;;;5155604;27;20046;-75
2023/09/07 01:45:41;;;;;;;4.00;3.03;;;17.60;99.90;;;;;;5155779;27;20035;-75
2023/09/07 01:48:10;;;;;;;4.85;3.38;;;17.60;99.90;;;;;;5155578;27;20114;-75
2023/09/07 01:50:36;;;;;;;5.68;3.95;;;17.60;99.90;;;;;;5155756;27;20058;-76
2023/09/07 01:53:04;;;;;;;5.50;3.85;;;17.60;99.90;;;;;;5155443;27;20121;-76
2023/09/07 01:55:30;;;;;;;5.22;3.95;;;17.60;99.90;;;;;;5155386;27;20035;-75
2023/09/07 01:57:56;;;;;;;4.97;3.90;;;17.60;99.90;;;;;;5155278;27;20042;-75
2023/09/07 02:00:22;;;;;;;6.25;4.38;;;17.60;99.90;;;;;;5137121;27;20122;-75
2023/09/07 02:02:47;;;;;;;5.18;3.90;;;17.70;99.90;;;;;;5156470;27;20117;-75
2023/09/07 02:05:13;;;;;;;4.88;4.05;;;17.60;99.90;;;;;;5139510;27;20034;-75
2023/09/07 02:07:39;;;;;;;6.13;4.00;;;17.60;99.90;;;;;;5157910;27;20126;-75
2023/09/07 02:10:05;;;;;;;4.65;3.85;;;17.60;99.90;;;;;;5154877;27;20513;-75
2023/09/07 02:12:31;;;;;;;5.88;4.30;;;17.50;99.90;;;;;;5155105;27;20420;-75
2023/09/07 02:15:03;;;;;;;8.88;4.45;;;17.50;99.90;;;;;;5137105;27;20179;-75
2023/09/07 02:17:29;;;;;;;6.60;4.55;;;17.40;99.90;;;;;;5154972;27;20489;-75
2023/09/07 02:19:56;;;;;;;5.28;3.85;;;17.40;99.90;;;;;;5154706;27;20042;-75
2023/09/07 02:22:22;;;;;;;5.70;4.45;;;17.40;99.90;;;;;;5154980;27;20039;-75
2023/09/07 02:24:47;;;;;;;5.05;4.47;;;17.30;99.90;;;;;;5155363;27;20042;-75
2023/09/07 02:27:13;;;;;;;5.40;4.45;;;17.30;99.90;;;;;;5152615;27;20477;-75
2023/09/07 02:29:39;;;;;;;5.32;4.22;;;17.30;99.90;;;;;;5155056;27;20026;-75
2023/09/07 02:32:05;;;;;;;7.00;4.72;;;17.30;99.90;;;;;;5154345;27;20034;-75
2023/09/07 02:34:31;;;;;;;5.40;4.32;;;17.20;99.90;;;;;;5155174;27;20037;-75
2023/09/07 02:36:57;;;;;;;5.78;4.25;;;17.20;99.90;;;;;;5145633;27;20039;-75
2023/09/07 02:39:26;;;;;;;5.20;4.25;;;17.20;99.90;;;;;;5136341;27;20030;-74
2023/09/07 02:41:52;;;;;;;6.57;4.15;;;17.20;99.90;;;;;;5158873;27;20103;-74
2023/09/07 02:44:18;;;;;;;6.85;4.53;;;17.20;99.90;;;;;;5161663;27;20053;-74
2023/09/07 02:46:43;;;;;;;5.65;4.57;;;17.20;99.90;;;;;;5143950;27;20035;-75
2023/09/07 02:49:09;;;;;;;5.10;4.18;;;17.10;99.90;;;;;;5161375;27;20082;-75
2023/09/07 02:51:35;;;;;;;5.40;4.40;;;17.10;99.90;;;;;;5161665;27;20057;-75
2023/09/07 02:54:03;;;;;;;5.53;4.10;;;17.10;99.90;;;;;;5162082;27;20070;-75
2023/09/07 02:56:29;;;;;;;5.47;4.05;;;17.10;99.90;;;;;;5154426;27;20054;-75
2023/09/07 02:58:54;;;;;;;4.60;3.92;;;17.10;99.90;;;;;;5143196;27;20038;-74
2023/09/07 03:01:20;;;;;;;6.43;4.40;;;17.00;99.90;;;;;;5161654;27;20121;-74
2023/09/07 03:03:46;;;;;;;4.95;4.22;;;17.00;99.90;;;;;;5142767;27;20030;-74
2023/09/07 03:06:13;;;;;;;4.53;3.83;;;17.00;99.90;;;;;;5161698;27;20066;-74
2023/09/07 03:08:40;;;;;;;5.18;3.85;;;17.00;99.90;;;;;;5161777;27;20377;-74
2023/09/07 03:11:06;;;;;;;5.97;4.00;;;17.00;99.90;;;;;;5161416;27;20052;-74
2023/09/07 03:13:32;;;;;;;5.80;4.18;;;17.00;99.90;;;;;;5161223;27;20039;-75
2023/09/07 03:15:59;;;;;;;5.25;4.25;;;17.00;99.90;;;;;;5143078;27;20045;-75
2023/09/07 03:18:25;;;;;;;4.90;3.72;;;17.00;99.90;;;;;;5160854;27;20027;-74
2023/09/07 03:20:53;;;;;;;4.72;3.45;;;17.00;99.90;;;;;;5161276;27;20042;-75
2023/09/07 03:23:18;;;;;;;5.05;3.80;;;16.90;99.90;;;;;;5143089;27;20375;-75
2023/09/07 03:25:44;;;;;;;4.68;3.80;;;16.90;99.90;;;;;;5142720;27;20027;-75
2023/09/07 03:28:10;;;;;;;7.28;3.88;;;16.90;99.90;;;;;;5125754;27;20042;-75
2023/09/07 03:30:35;;;;;;;5.20;3.75;;;16.90;99.90;;;;;;5161842;27;20042;-74
2023/09/07 03:33:03;;;;;;;5.28;4.25;;;16.80;99.90;;;;;;5161108;27;20043;-74
2023/09/07 03:35:28;;;;;;;4.45;3.47;;;16.80;99.90;;;;;;5161763;27;20070;-75
2023/09/07 03:37:55;;;;;;;5.32;4.07;;;16.80;99.90;;;;;;5161274;27;20066;-75
2023/09/07 03:40:20;;;;;;;5.13;3.90;;;16.80;99.90;;;;;;5141313;27;20386;-75
2023/09/07 03:42:46;;;;;;;5.38;3.92;;;16.80;99.90;;;;;;5159243;27;20042;-75
2023/09/07 03:45:12;;;;;;;8.50;4.03;;;16.80;99.90;;;;;;5140928;27;20038;-74
2023/09/07 03:47:38;;;;;;;5.13;3.78;;;16.70;99.90;;;;;;5159229;27;20030;-75
2023/09/07 03:50:05;;;;;;;5.47;3.88;;;16.70;99.90;;;;;;5160247;27;20090;-74
2023/09/07 03:52:31;;;;;;;5.90;4.15;;;16.70;99.90;;;;;;5159355;27;20043;-75
2023/09/07 03:54:57;;;;;;;4.80;4.05;;;16.70;99.90;;;;;;5136754;27;20053;-75
2023/09/07 03:57:23;;;;;;;5.47;4.10;;;16.70;99.90;;;;;;5152487;27;20046;-74
2023/09/07 03:59:49;;;;;;;5.18;4.15;;;16.60;99.90;;;;;;5157475;27;20050;-74
2023/09/07 04:02:16;;;;;;;6.63;4.45;;;16.60;99.90;;;;;;5156671;27;20043;-75
2023/09/07 04:04:42;;;;;;;5.32;4.28;;;16.50;99.90;;;;;;5157559;27;20090;-74
2023/09/07 04:07:08;;;;;;;5.72;4.05;;;16.50;99.90;;;;;;5157748;27;20110;-75
2023/09/07 04:09:35;;;;;;;6.03;4.45;;;16.40;99.90;;;;;;5138943;27;20408;-74
2023/09/07 04:12:00;;;;;;;4.70;4.20;;;16.40;99.90;;;;;;5157973;27;20144;-74
2023/09/07 04:14:28;;;;;;;5.13;4.03;;;16.40;99.90;;;;;;5157367;27;20114;-75
2023/09/07 04:16:53;;;;;;;6.57;4.15;;;16.30;99.90;;;;;;5157358;27;20056;-74
2023/09/07 04:19:19;;;;;;;4.32;3.75;;;16.30;99.90;;;;;;5157286;27;20043;-75
2023/09/07 04:21:45;;;;;;;5.85;4.20;;;16.20;99.90;;;;;;5157541;27;20122;-74
2023/09/07 04:24:10;;;;;;;4.85;4.03;;;16.20;99.90;;;;;;5157343;27;20483;-75
2023/09/07 04:26:37;;;;;;;6.55;4.30;;;16.20;99.90;;;;;;5151831;27;20046;-74
2023/09/07 04:29:03;;;;;;;5.88;4.47;;;16.20;99.90;;;;;;5157250;27;20463;-75
2023/09/07 04:31:29;;;;;;;5.53;4.40;;;16.20;99.90;;;;;;5157051;27;20063;-75
2023/09/07 04:33:55;;;;;;;7.13;4.85;;;16.20;99.90;;;;;;5156229;27;20099;-74
2023/09/07 04:36:20;;;;;;;4.85;4.22;;;16.20;99.90;;;;;;5156616;27;20115;-74
2023/09/07 04:38:46;;;;;;;5.53;4.68;;;16.20;99.90;;;;;;5121578;27;20089;-74
2023/09/07 04:41:13;;;;;;;6.97;4.88;;;16.10;99.90;;;;;;5156847;27;20073;-75
2023/09/07 04:43:42;;;;;;;5.97;4.55;;;16.10;99.90;;;;;;5138594;27;20070;-76
2023/09/07 04:46:09;;;;;;;5.35;4.43;;;16.10;99.90;;;;;;5156851;27;20386;-75
2023/09/07 04:48:35;;;;;;;6.15;5.00;;;16.10;99.90;;;;;;5156974;27;20034;-74
2023/09/07 04:51:03;;;;;;;5.07;4.57;;;16.00;99.90;;;;;;5156429;27;20072;-75
2023/09/07 04:53:30;;;;;;;6.57;4.80;;;16.00;99.90;;;;;;5155840;27;20039;-74
2023/09/07 04:55:57;;;;;;;6.95;4.85;;;16.00;99.90;;;;;;5156543;27;20090;-75
2023/09/07 04:58:22;;;;;;;5.57;4.15;;;16.00;99.90;;;;;;5137531;27;20171;-74
2023/09/07 05:00:48;;;;;;;7.53;5.15;;;16.00;99.90;;;;;;5137435;27;20526;-74
2023/09/07 05:03:14;;;;;;;5.45;4.55;;;16.00;99.90;;;;;;5155813;27;20038;-74
2023/09/07 05:05:41;;;;;;;5.72;4.55;;;16.00;99.90;;;;;;5138329;27;20390;-75
2023/09/07 05:08:07;;;;;;;5.13;4.20;;;16.00;99.90;;;;;;5138301;27;20050;-74
2023/09/07 05:10:33;;;;;;;5.25;4.20;;;16.00;99.90;;;;;;5156156;27;20042;-75
2023/09/07 05:12:59;;;;;;;5.25;4.18;;;16.00;99.90;;;;;;5155267;27;20050;-74
2023/09/07 05:15:26;;;;;;;5.53;4.43;;;16.00;99.90;;;;;;5138311;27;20043;-74
2023/09/07 05:17:52;;;;;;;6.25;4.72;;;16.00;99.90;;;;;;5156573;27;20110;-74
2023/09/07 05:20:18;;;;;;;6.20;4.18;;;16.00;99.90;;;;;;5156197;27;20034;-75
2023/09/07 05:22:43;;;;;;;5.18;4.50;;;16.00;99.90;;;;;;5153973;27;20045;-75
2023/09/07 05:25:10;;;;;;;6.35;4.50;;;16.00;99.90;;;;;;5155911;27;20053;-74
2023/09/07 05:27:36;;;;;;;6.55;4.75;;;16.00;99.90;;;;;;5133456;27;20473;-74
2023/09/07 05:30:03;;;;;;;4.85;4.15;;;16.10;99.90;;;;;;5155793;27;20117;-74
2023/09/07 05:32:29;;;;;;;6.88;4.28;;;16.10;99.90;;;;;;5136886;27;20050;-74
2023/09/07 05:34:54;;;;;;;7.35;4.28;;;16.10;99.90;;;;;;5155502;27;20035;-74
2023/09/07 05:37:20;;;;;;;6.53;4.07;;;16.10;99.90;;;;;;5155579;27;20080;-74
2023/09/07 05:39:46;;;;;;;6.00;4.85;;;16.20;99.90;;;;;;5120269;27;20065;-74
2023/09/07 05:42:12;;;;;;;6.57;4.68;;;16.20;99.90;;;;;;5155596;27;20064;-74
2023/09/07 05:44:38;;;;;;;4.90;4.07;;;16.20;99.90;;;;;;5155530;27;20482;-75
2023/09/07 05:47:04;;;;;;;5.63;4.90;;;16.30;99.90;;;;;;5155577;27;20376;-74
2023/09/07 05:49:30;;;;;;;6.00;4.13;;;16.30;99.90;;;;;;5155226;27;20039;-74
2023/09/07 05:51:56;;;;;;;6.40;4.22;;;16.40;99.90;;;;;;5155220;27;20110;-74
2023/09/07 05:54:22;;;;;;;5.68;4.32;;;16.40;99.90;;;;;;5155357;27;20068;-74
2023/09/07 05:56:48;;;;;;;5.03;4.22;;;16.40;99.90;;;;;;5155072;27;20387;-73
2023/09/07 05:59:13;;;;;;;4.82;4.30;;;16.40;99.90;;;;;;5154664;27;20161;-74
2023/09/07 06:01:40;;;;;;;6.68;4.45;;;16.50;99.90;;;;;;5155615;27;20458;-74
2023/09/07 06:04:06;;;;;;;5.72;4.57;;;16.60;99.90;;;;;;5154804;27;20058;-74
2023/09/07 06:06:32;;;;;;;5.68;4.43;;;16.70;99.90;;;;;;5155615;27;20046;-74
2023/09/07 06:08:59;;;;;;;6.25;4.63;;;16.70;99.90;;;;;;5154657;27;20102;-74
2023/09/07 06:11:25;;;;;;;6.55;4.93;;;16.80;99.90;;;;;;5137364;27;20114;-74
2023/09/07 06:13:50;;;;;;;6.63;4.43;;;16.90;99.90;;;;;;5155008;27;20046;-66
2023/09/07 06:16:16;;;;;;;8.05;4.82;;;17.00;99.90;;;;;;5154395;27;20396;-65
2023/09/07 06:18:42;;;;;;;6.38;4.82;;;17.10;99.90;;;;;;5155241;27;20041;-65
2023/09/07 06:21:08;;;;;;;6.47;4.80;;;17.20;99.90;;;;;;5155246;27;20134;-65
2023/09/07 06:23:34;;;;;;;6.43;5.13;;;17.30;99.90;;;;;;5155504;27;20035;-65
2023/09/07 06:26:00;;;;;;;7.90;4.93;;;17.40;99.90;;;;;;5154565;27;20478;-65
2023/09/07 06:28:26;;;;;;;7.32;4.78;;;17.50;99.90;;;;;;5154940;27;20091;-65
2023/09/07 06:30:52;;;;;;;6.10;5.03;;;17.60;99.90;;;;;;5136559;27;20408;-65
2023/09/07 06:33:18;;;;;;;7.18;5.15;;;17.70;99.90;;;;;;5154522;27;20035;-65
2023/09/07 06:35:43;;;;;;;8.40;5.43;;;17.80;99.90;;;;;;5154709;27;20398;-65
2023/09/07 06:38:09;;;;;;;6.93;5.47;;;17.90;99.90;;;;;;5136050;27;20041;-65
2023/09/07 06:40:35;;;;;;;6.82;4.90;;;18.00;99.90;;;;;;5154374;27;20118;-65
2023/09/07 06:43:05;;;;;;;6.90;5.43;;;18.10;99.90;;;;;;5154713;27;20121;-65
2023/09/07 06:45:35;;;;;;;7.80;5.07;;;18.20;99.90;;;;;;5154976;27;20099;-65
2023/09/07 06:48:01;;;;;;;6.68;4.78;;;18.30;99.90;;;;;;5154892;27;20035;-66
2023/09/07 06:50:26;;;;;;;7.72;5.40;;;18.40;99.90;;;;;;5154718;27;20039;-65
2023/09/07 06:52:52;;;;;;;7.40;5.10;;;18.50;99.90;;;;;;5136454;27;20047;-65
2023/09/07 06:55:18;;;;;;;9.57;6.53;;;18.60;99.90;;;;;;5154390;27;20060;-65
2023/09/07 06:57:43;;;;;;;6.38;5.13;;;18.70;99.90;;;;;;5154262;27;20062;-65
2023/09/07 07:00:10;;;;;;;7.47;5.32;;;18.80;99.90;;;;;;5154643;27;20140;-65
2023/09/07 07:02:36;;;;;;;6.93;5.57;;;18.90;99.90;;;;;;5153938;27;20095;-65
2023/09/07 07:05:02;;;;;;;7.13;5.40;;;19.00;99.90;;;;;;5153993;27;20046;-66
2023/09/07 07:07:29;;;;;;;7.20;5.65;;;19.10;99.90;;;;;;5135973;27;20545;-65
2023/09/07 07:09:55;;;;;;;6.72;5.28;;;19.20;99.90;;;;;;5135814;27;20077;-65
2023/09/07 07:12:20;;;;;;;6.65;5.40;;;19.40;99.90;;;;;;5145313;27;20043;-65
2023/09/07 07:14:46;;;;;;;6.18;5.32;;;19.50;99.90;;;;;;5151636;27;20034;-66
2023/09/07 07:17:12;;;;;;;6.22;5.28;;;19.70;99.90;;;;;;5145331;27;20414;-65
2023/09/07 07:19:38;;;;;;;5.85;5.03;;;19.80;99.90;;;;;;5123863;27;20035;-65
2023/09/07 07:22:03;;;;;;;7.32;5.88;;;19.90;99.90;;;;;;5145473;27;20034;-64
2023/09/07 07:24:29;;;;;;;7.53;5.45;;;20.00;99.90;;;;;;5153253;27;20042;-64
2023/09/07 07:26:55;;;;;;;6.22;5.30;;;20.10;99.90;;;;;;5153960;27;20035;-64
2023/09/07 07:29:21;;;;;;;6.38;5.25;;;20.20;99.90;;;;;;5157124;27;20125;-66
2023/09/07 07:31:46;;;;;;;7.82;5.80;;;20.30;99.90;;;;;;5139385;27;20047;-65
2023/09/07 07:34:13;;;;;;;8.95;6.30;;;20.40;99.90;;;;;;5157679;27;20038;-64
2023/09/07 07:36:38;;;;;;;6.75;5.18;;;20.60;99.90;;;;;;5157645;27;20053;-64
2023/09/07 07:39:07;;;;;;;6.90;5.60;;;20.70;99.90;;;;;;5157146;27;20039;-65
2023/09/07 07:41:33;;;;;;;6.82;5.30;;;20.80;99.90;;;;;;5158023;27;20042;-65
2023/09/07 07:43:59;;;;;;;6.18;4.78;;;20.90;99.90;;;;;;5157352;27;20300;-65
2023/09/07 07:46:24;;;;;;;7.68;5.03;;;21.00;99.90;;;;;;5138904;27;20038;-65
2023/09/07 07:48:50;;;;;;;6.80;5.03;;;21.10;99.90;;;;;;5157754;27;20379;-66
2023/09/07 07:51:16;;;;;;;6.65;4.85;;;21.20;99.90;;;;;;5139565;27;20057;-66
2023/09/07 07:53:42;;;;;;;5.82;4.88;;;21.30;99.90;;;;;;5139070;27;20039;-66
2023/09/07 07:56:17;;;;;;;7.10;4.95;;;21.40;99.90;;;;;;5139304;27;20034;-66
2023/09/07 07:58:44;;;;;;;6.63;5.53;;;21.50;99.90;;;;;;5157440;27;20093;-65
2023/09/07 08:01:15;;;;;;;5.90;4.75;;;21.70;99.90;;;;;;5157022;27;20080;-66
2023/09/07 08:03:41;;;;;;;6.53;4.95;;;21.70;99.90;;;;;;5156888;27;20037;-65
2023/09/07 08:06:06;;;;;;;6.00;4.60;;;21.90;99.90;;;;;;5157655;27;20042;-65
2023/09/07 08:08:32;;;;;;;5.93;4.50;;;22.00;99.90;;;;;;5157095;27;20031;-65
2023/09/07 08:10:59;;;;;;;5.90;4.30;;;22.10;99.90;;;;;;5156905;27;20058;-65
2023/09/07 08:13:25;;;;;;;6.45;4.35;;;22.20;99.90;;;;;;5156710;27;20474;-66
2023/09/07 08:15:51;;;;;;;5.30;4.30;;;22.30;99.90;;;;;;5156927;27;20034;-66
2023/09/07 08:18:17;;;;;;;5.18;3.80;;;22.40;99.90;;;;;;5157263;27;20042;-66
2023/09/07 08:20:42;;;;;;;5.00;3.85;;;22.50;99.90;;;;;;5138416;27;20076;-66
2023/09/07 08:23:10;;;;;;;5.03;3.47;;;22.60;99.90;;;;;;5156126;27;20127;-66
2023/09/07 08:25:36;;;;;;;5.22;3.97;;;22.70;99.90;;;;;;5138478;27;20054;-66
2023/09/07 08:28:05;;;;;;;4.32;3.45;;;22.90;99.90;;;;;;5157245;27;20110;-66
2023/09/07 08:30:31;;;;;;;6.35;3.60;;;23.00;99.90;;;;;;5137307;27;20456;-66
2023/09/07 08:32:57;;;;;;;4.07;3.60;;;23.10;99.90;;;;;;5156534;27;20051;-66
2023/09/07 08:35:26;;;;;;;4.28;3.47;;;23.20;99.90;;;;;;5156905;27;20042;-66
2023/09/07 08:37:54;;;;;;;6.32;3.20;;;23.40;99.90;;;;;;5156118;27;20039;-66
2023/09/07 08:40:20;;;;;;;5.00;3.45;;;23.40;99.90;;;;;;5156246;27;20502;-66
2023/09/07 08:42:47;;;;;;;3.90;3.05;;;23.50;99.90;;;;;;5156640;27;20053;-64
2023/09/07 08:45:18;;;;;;;4.93;3.38;;;23.60;99.90;;;;;;5145996;27;20171;-65
2023/09/07 08:47:46;;;;;;;3.85;3.28;;;23.80;99.90;;;;;;5151964;27;20027;-65
2023/09/07 08:50:13;;;;;;;6.03;3.50;;;23.90;99.90;;;;;;5155379;27;20042;-65
2023/09/07 08:52:39;;;;;;;4.43;3.40;;;24.10;99.90;;;;;;5137849;27;20130;-65
2023/09/07 08:55:06;;;;;;;6.13;3.33;;;24.10;99.90;;;;;;5156304;27;20486;-65
2023/09/07 08:57:33;;;;;;;4.93;3.47;;;24.20;99.90;;;;;;5155773;27;20479;-65
2023/09/07 08:59:59;;;;;;;4.82;2.80;;;24.40;99.90;;;;;;5155678;27;20107;-66
2023/09/07 09:02:25;;;;;;;3.90;2.88;;;24.40;99.90;;;;;;5155784;27;20466;-66
2023/09/07 09:04:52;;;;;;;4.03;2.88;;;24.50;99.90;;;;;;5156424;27;20074;-66
2023/09/07 09:07:18;;;;;;;4.55;2.95;;;24.60;99.90;;;;;;5155986;27;20060;-65
2023/09/07 09:09:44;;;;;;;4.82;3.28;;;24.70;99.90;;;;;;5156224;27;20526;-65
2023/09/07 09:12:11;;;;;;;4.28;3.55;;;24.80;99.90;;;;;;5156203;27;20051;-65
2023/09/07 09:14:37;;;;;;;4.43;2.90;;;24.90;99.90;;;;;;5155640;27;20046;-65
2023/09/07 09:17:03;;;;;;;5.35;3.00;;;25.00;99.90;;;;;;5155997;27;20102;-65
2023/09/07 09:19:33;;;;;;;3.38;2.92;;;25.00;99.90;;;;;;5155768;27;20121;-65
2023/09/07 09:21:59;;;;;;;4.00;2.90;;;25.10;99.90;;;;;;5143402;27;20053;-65
2023/09/07 09:24:24;;;;;;;5.55;2.92;;;25.20;99.90;;;;;;5117301;27;20035;-65
2023/09/07 09:26:50;;;;;;;5.40;2.88;;;25.20;99.90;;;;;;5135102;27;20134;-65
2023/09/07 09:29:16;;;;;;;4.97;3.03;;;25.30;99.90;;;;;;5134761;27;20130;-65
2023/09/07 09:31:43;;;;;;;3.60;2.65;;;25.40;99.90;;;;;;5133880;27;20122;-66
2023/09/07 09:34:08;;;;;;;4.70;3.25;;;25.50;99.90;;;;;;5133272;27;20487;-66
2023/09/07 09:36:36;;;;;;;4.25;3.58;;;25.60;99.90;;;;;;5133274;27;20130;-65
2023/09/07 09:39:03;;;;;;;4.45;3.05;;;25.80;99.90;;;;;;5150398;27;20074;-64
2023/09/07 09:41:32;;;;;;;3.83;2.95;;;25.90;99.90;;;;;;5155546;27;20043;-65
2023/09/07 09:43:59;;;;;;;5.72;3.08;;;26.00;99.90;;;;;;5155558;27;20386;-65
2023/09/07 09:46:26;;;;;;;6.22;3.08;;;26.10;99.90;;;;;;5137457;27;20051;-64
2023/09/07 09:48:53;;;;;;;4.07;2.70;;;26.20;99.90;;;;;;5155772;27;20057;-64
2023/09/07 09:51:19;;;;;;;5.07;3.35;;;26.30;99.90;;;;;;5154503;27;20046;-64
2023/09/07 09:53:45;;;;;;;3.67;3.00;;;26.40;99.90;;;;;;5155573;27;20049;-64
2023/09/07 09:56:11;;;;;;;3.60;2.90;;;26.60;99.90;;;;;;5155510;27;20038;-66
2023/09/07 09:58:37;;;;;;;4.32;3.15;;;26.70;99.90;;;;;;5155082;27;20447;-66
2023/09/07 10:01:05;;;;;;;4.32;3.30;;;26.80;99.90;;;;;;5155509;27;20050;-68
2023/09/07 10:03:58;;;;;;;4.57;3.47;;;26.80;99.90;;;;;;5134612;27;20046;-65
2023/09/07 10:06:29;;;;;;;4.70;2.85;;;26.90;99.90;;;;;;5142490;27;20055;-65
2023/09/07 10:08:59;;;;;;;3.90;3.25;;;27.00;99.90;;;;;;5152592;27;20453;-64
2023/09/07 10:11:33;;;;;;;4.43;2.72;;;27.00;99.90;;;;;;5153064;27;20043;-65
2023/09/07 10:14:03;;;;;;;4.32;3.08;;;27.10;99.90;;;;;;5154260;27;20039;-65
2023/09/07 10:16:29;;;;;;;6.22;2.70;;;27.10;99.90;;;;;;5154811;27;20053;-65
2023/09/07 10:18:54;;;;;;;3.95;2.83;;;27.20;99.90;;;;;;5154795;27;20035;-64
2023/09/07 10:21:25;;;;;;;4.32;2.83;;;27.40;99.90;;;;;;5154638;27;20054;-64
2023/09/07 10:23:53;;;;;;;5.32;3.08;;;27.50;99.90;;;;;;5155199;27;20043;-64
2023/09/07 10:26:23;;;;;;;5.10;2.63;;;27.60;99.90;;;;;;5134282;27;20059;-64
2023/09/07 10:29:00;;;;;;;5.53;2.80;;;27.90;99.90;;;;;;5150789;27;20119;-65
2023/09/07 10:31:26;;;;;;;3.70;2.65;;;28.00;99.90;;;;;;5135246;27;20122;-64
2023/09/07 10:33:52;;;;;;;3.80;2.45;;;28.10;99.90;;;;;;5133315;27;20130;-64
2023/09/07 10:36:26;;;;;;;4.95;2.38;;;28.20;99.90;;;;;;5133724;27;20043;-65
2023/09/07 10:38:55;;;;;;;3.75;2.78;;;28.40;99.90;;;;;;5148553;27;20061;-64
2023/09/07 10:41:21;;;;;;;4.07;2.85;;;28.50;99.90;;;;;;5154796;27;20046;-65
2023/09/07 10:43:49;;;;;;;4.60;3.15;;;28.60;99.90;;;;;;5153770;27;20043;-65
2023/09/07 10:46:19;;;;;;;3.30;2.78;;;28.70;99.90;;;;;;5154578;27;20043;-64
2023/09/07 10:48:45;;;;;;;3.40;2.92;;;28.80;99.90;;;;;;5154015;27;20035;-64
2023/09/07 10:51:11;;;;;;;3.10;2.65;;;28.90;99.90;;;;;;5154072;27;20065;-65
2023/09/07 10:53:36;;;;;;;4.80;3.00;;;29.00;99.90;;;;;;5134837;27;20391;-65
2023/09/07 10:56:04;;;;;;;3.38;2.25;;;29.00;99.90;;;;;;5115427;28;20050;-65
2023/09/07 10:58:32;;;;;;;3.65;2.78;;;29.00;99.90;;;;;;5132670;27;20413;-65
2023/09/07 11:00:58;;;;;;;4.90;2.40;;;29.10;99.90;;;;;;5132960;28;20055;-65
2023/09/07 11:03:27;;;;;;;4.05;2.83;;;29.10;99.90;;;;;;5136319;27;20051;-65
2023/09/07 11:06:19;;;;;;;3.28;2.47;;;29.10;99.90;;;;;;5137764;27;20096;-64
2023/09/07 11:08:48;;;;;;;4.55;2.70;;;29.00;99.90;;;;;;5137429;27;20035;-67
2023/09/07 11:11:13;;;;;;;5.45;2.50;;;28.90;99.90;;;;;;5152423;27;20035;-64
2023/09/07 11:13:39;;;;;;;3.20;2.25;;;28.80;99.90;;;;;;5152933;27;20046;-65
2023/09/07 11:16:08;;;;;;;3.60;2.50;;;28.80;99.90;;;;;;5137221;27;20117;-65
2023/09/07 11:18:37;;;;;;;3.40;2.72;;;28.70;99.90;;;;;;5146251;27;20045;-66
2023/09/07 11:21:07;;;;;;;4.40;2.78;;;28.60;99.90;;;;;;5143265;27;20047;-65
2023/09/07 11:23:37;;;;;;;3.60;2.50;;;28.60;99.90;;;;;;5137383;27;20039;-64
2023/09/07 11:26:08;;;;;;;6.70;2.72;;;28.50;99.90;;;;;;5137240;27;20043;-65
2023/09/07 11:28:34;;;;;;;4.35;2.53;;;28.40;99.90;;;;;;5137070;27;20403;-65
2023/09/07 11:31:00;;;;;;;3.75;2.60;;;28.40;99.90;;;;;;5152517;27;20643;-65
2023/09/07 11:33:27;;;;;;;4.05;2.97;;;28.30;99.90;;;;;;5157241;27;20057;-64
2023/09/07 11:35:56;;;;;;;2.97;2.50;;;28.30;99.90;;;;;;5152927;27;20082;-64
2023/09/07 11:38:22;;;;;;;3.08;2.60;;;28.20;99.90;;;;;;5137547;27;20039;-67
2023/09/07 11:40:47;;;;;;;4.65;3.13;;;28.10;99.90;;;;;;5136956;27;20134;-65
2023/09/07 11:43:20;;;;;;;3.88;2.55;;;28.10;99.90;;;;;;5136109;27;20126;-65
2023/09/07 11:45:47;;;;;;;4.22;2.80;;;28.10;99.90;;;;;;5119055;27;20043;-65
2023/09/07 11:48:12;;;;;;;4.13;3.08;;;28.10;99.90;;;;;;5118939;27;20074;-65
2023/09/07 11:50:39;;;;;;;3.60;2.80;;;28.00;99.90;;;;;;5136754;27;20089;-65
2023/09/07 11:53:06;;;;;;;3.88;3.25;;;28.10;99.90;;;;;;5151639;27;20491;-65
2023/09/07 11:55:33;;;;;;;4.40;3.15;;;28.10;99.90;;;;;;5138910;27;20058;-65
2023/09/07 11:57:58;;;;;;;5.28;3.00;;;28.10;99.90;;;;;;5136458;27;20111;-65
2023/09/07 12:00:24;;;;;;;4.63;2.78;;;28.10;99.90;;;;;;5136872;27;20051;-65
2023/09/07 12:02:50;;;;;;;4.57;2.90;;;28.20;99.90;;;;;;5136404;27;20043;-66
2023/09/07 12:05:17;;;;;;;3.88;2.92;;;28.20;99.90;;;;;;5136364;27;20051;-66
2023/09/07 12:07:43;;;;;;;4.05;3.00;;;28.20;99.90;;;;;;5136474;27;20075;-66
2023/09/07 12:10:10;;;;;;;5.32;2.90;;;28.20;99.90;;;;;;5123795;27;20085;-66
2023/09/07 12:12:37;;;;;;;4.07;3.00;;;28.20;99.90;;;;;;5157241;27;20047;-66
2023/09/07 12:15:04;;;;;;;3.08;2.38;;;28.20;99.90;;;;;;5142588;27;20123;-65
2023/09/07 12:17:30;;;;;;;4.43;2.80;;;28.20;99.90;;;;;;5136677;27;20044;-66
2023/09/07 12:19:56;;;;;;;3.50;2.90;;;28.20;99.90;;;;;;5136202;27;20086;-66
2023/09/07 12:22:21;;;;;;;4.82;3.10;;;28.20;99.90;;;;;;5136740;27;20081;-66
2023/09/07 12:24:47;;;;;;;3.33;2.75;;;28.20;99.90;;;;;;5136298;27;20105;-65
2023/09/07 12:27:13;;;;;;;4.68;3.00;;;28.20;99.90;;;;;;5136383;27;20035;-65
2023/09/07 12:29:39;;;;;;;4.40;2.75;;;28.20;99.90;;;;;;5140509;27;20043;-65
2023/09/07 12:32:05;;;;;;;3.55;2.92;;;28.20;99.90;;;;;;5157394;27;20043;-65
2023/09/07 12:34:31;;;;;;;3.33;2.72;;;28.20;99.90;;;;;;5156064;27;20489;-65
2023/09/07 12:36:56;;;;;;;4.85;2.90;;;28.20;99.90;;;;;;5156591;27;20043;-65
2023/09/07 12:39:22;;;;;;;3.38;2.78;;;28.20;99.90;;;;;;5138193;27;20056;-65
2023/09/07 12:41:48;;;;;;;3.58;2.95;;;28.30;99.90;;;;;;5135948;27;20121;-65
2023/09/07 12:44:13;;;;;;;3.10;2.55;;;28.40;99.90;;;;;;5118118;27;20070;-65